createdAt,value
2023-03-25T00:02:58.352Z,10.60
2023-03-25T00:06:02.324Z,10.60
2023-03-25T00:09:08.121Z,10.60
2023-03-25T00:12:13.763Z,10.60
2023-03-25T00:15:21.778Z,10.60
2023-03-25T00:18:28.738Z,10.60
2023-03-25T00:21:35.057Z,10.60
2023-03-25T00:24:39.031Z,10.60
2023-03-25T00:27:48.074Z,10.60
2023-03-25T00:30:53.329Z,10.60
2023-03-25T00:33:59.385Z,10.60
2023-03-25T00:37:03.678Z,10.60
2023-03-25T00:40:11.140Z,10.70
2023-03-25T00:43:17.012Z,10.60
2023-03-25T00:46:23.133Z,10.70
2023-03-25T00:49:28.043Z,10.70
2023-03-25T00:52:33.782Z,10.70
2023-03-25T00:55:37.722Z,10.70
2023-03-25T00:58:45.385Z,10.70
2023-03-25T01:01:52.669Z,10.70
2023-03-25T01:04:59.624Z,10.70
2023-03-25T01:08:03.949Z,10.70
2023-03-25T01:11:18.151Z,10.70
2023-03-25T01:14:26.922Z,10.70
2023-03-25T01:17:32.934Z,10.70
2023-03-25T01:20:36.652Z,10.70
2023-03-25T01:23:42.610Z,10.70
2023-03-25T01:26:47.139Z,10.70
2023-03-25T01:29:55.318Z,10.70
2023-03-25T01:32:59.281Z,10.70
2023-03-25T01:36:12.289Z,10.70
2023-03-25T01:39:18.258Z,10.70
2023-03-25T01:42:24.134Z,10.70
2023-03-25T01:45:32.262Z,10.70
2023-03-25T01:48:40.128Z,10.70
2023-03-25T01:51:46.471Z,10.60
2023-03-25T01:54:53.972Z,10.60
2023-03-25T01:57:59.461Z,10.60
2023-03-25T02:01:10.918Z,10.60
2023-03-25T02:04:14.942Z,10.60
2023-03-25T02:07:20.682Z,10.60
2023-03-25T02:10:24.398Z,10.60
2023-03-25T02:13:30.781Z,10.60
2023-03-25T02:16:42.975Z,10.60
2023-03-25T02:20:08.638Z,10.60
2023-03-25T02:23:27.846Z,10.60
2023-03-25T02:26:49.535Z,10.60
2023-03-25T02:29:59.119Z,10.60
2023-03-25T02:33:20.644Z,10.60
2023-03-25T02:36:39.383Z,10.60
2023-03-25T02:39:48.905Z,10.60
2023-03-25T02:42:55.514Z,10.60
2023-03-25T02:46:03.234Z,10.60
2023-03-25T02:49:09.962Z,10.60
2023-03-25T02:52:17.141Z,10.50
2023-03-25T02:55:24.960Z,10.60
2023-03-25T02:58:31.957Z,10.50
2023-03-25T03:01:37.212Z,10.60
2023-03-25T03:04:46.912Z,10.60
2023-03-25T03:07:53.757Z,10.60
2023-03-25T03:11:07.105Z,10.50
2023-03-25T03:14:18.374Z,10.50
2023-03-25T03:17:29.685Z,10.50
2023-03-25T03:20:39.275Z,10.50
2023-03-25T03:23:51.221Z,10.50
2023-03-25T03:26:59.142Z,10.50
2023-03-25T03:30:08.219Z,10.50
2023-03-25T03:33:15.126Z,10.50
2023-03-25T03:36:22.627Z,10.50
2023-03-25T03:39:29.357Z,10.50
2023-03-25T03:42:39.087Z,10.50
2023-03-25T03:45:45.033Z,10.50
2023-03-25T03:48:52.902Z,10.50
2023-03-25T03:51:59.579Z,10.50
2023-03-25T03:55:10.263Z,10.50
2023-03-25T03:58:21.797Z,10.40
2023-03-25T04:01:30.043Z,10.40
2023-03-25T04:04:34.375Z,10.40
2023-03-25T04:07:42.409Z,10.40
2023-03-25T04:10:52.020Z,10.40
2023-03-25T04:14:01.133Z,10.30
2023-03-25T04:17:06.279Z,10.30
2023-03-25T04:20:14.980Z,10.30
2023-03-25T04:23:19.254Z,10.30
2023-03-25T04:26:25.253Z,10.20
2023-03-25T04:29:31.174Z,10.20
2023-03-25T04:32:37.023Z,10.20
2023-03-25T04:35:41.126Z,10.10
2023-03-25T04:38:47.253Z,10.10
2023-03-25T04:41:53.172Z,10.10
2023-03-25T04:45:00.952Z,10.10
2023-03-25T04:48:05.608Z,10.10
2023-03-25T04:51:13.561Z,10.10
2023-03-25T04:54:18.319Z,10.00
2023-03-25T04:57:25.873Z,10.00
2023-03-25T05:00:31.631Z,10.00
2023-03-25T05:03:39.499Z,10.00
2023-03-25T05:06:44.245Z,10.00
2023-03-25T05:09:50.287Z,10.00
2023-03-25T05:12:59.270Z,10.00
2023-03-25T05:16:07.325Z,10.00
2023-03-25T05:19:11.068Z,9.90
2023-03-25T05:22:17.028Z,10.00
2023-03-25T05:25:22.171Z,10.00
2023-03-25T05:28:29.803Z,10.00
2023-03-25T05:31:35.813Z,10.00
2023-03-25T05:34:42.030Z,10.00
2023-03-25T05:37:45.963Z,10.00
2023-03-25T05:40:51.667Z,10.00
2023-03-25T05:43:55.351Z,10.00
2023-03-25T05:47:03.736Z,9.90
2023-03-25T05:50:08.256Z,9.90
2023-03-25T05:53:15.855Z,9.90
2023-03-25T05:56:20.743Z,9.90
2023-03-25T05:59:26.737Z,9.90
2023-03-25T06:02:32.704Z,9.90
2023-03-25T06:05:41.018Z,10.00
2023-03-25T06:08:44.985Z,9.90
2023-03-25T06:11:52.893Z,9.90
2023-03-25T06:14:56.863Z,9.90
2023-03-25T06:18:04.559Z,9.90
2023-03-25T06:21:08.744Z,10.00
2023-03-25T06:24:15.486Z,10.00
2023-03-25T06:27:19.993Z,10.00
2023-03-25T06:30:25.777Z,10.00
2023-03-25T06:33:42.940Z,10.00
2023-03-25T06:36:50.100Z,10.00
2023-03-25T06:39:56.127Z,10.00
2023-03-25T06:43:04.168Z,10.00
2023-03-25T06:46:10.531Z,10.00
2023-03-25T06:49:51.551Z,9.90
2023-03-25T06:52:55.354Z,10.00
2023-03-25T06:56:01.109Z,9.90
2023-03-25T06:59:05.284Z,9.90
2023-03-25T07:02:12.208Z,9.90
2023-03-25T07:05:18.116Z,9.90
2023-03-25T07:08:24.200Z,10.00
2023-03-25T07:11:30.108Z,10.00
2023-03-25T07:14:35.841Z,10.00
2023-03-25T07:17:39.620Z,10.00
2023-03-25T07:20:47.658Z,10.00
2023-03-25T07:23:51.558Z,10.00
2023-03-25T07:26:57.263Z,10.10
2023-03-25T07:30:04.253Z,10.10
2023-03-25T07:33:10.101Z,10.20
2023-03-25T07:36:15.866Z,10.20
2023-03-25T07:39:24.700Z,10.30
2023-03-25T07:42:28.470Z,10.40
2023-03-25T07:45:52.270Z,10.50
2023-03-25T07:48:56.268Z,10.50
2023-03-25T07:52:03.946Z,10.60
2023-03-25T07:55:08.402Z,10.70
2023-03-25T07:58:14.189Z,10.70
2023-03-25T08:01:17.923Z,10.80
2023-03-25T08:04:23.863Z,10.80
2023-03-25T08:07:29.892Z,10.90
2023-03-25T08:10:36.356Z,10.90
2023-03-25T08:13:40.372Z,10.90
2023-03-25T08:16:46.111Z,10.90
2023-03-25T08:19:49.919Z,10.90
2023-03-25T08:22:58.319Z,10.90
2023-03-25T08:26:02.620Z,10.80
2023-03-25T08:29:09.626Z,10.80
2023-03-25T08:32:13.449Z,10.80
2023-03-25T08:35:20.246Z,10.80
2023-03-25T08:38:33.103Z,10.80
2023-03-25T08:41:40.494Z,10.70
2023-03-25T08:44:44.516Z,10.70
2023-03-25T08:47:50.568Z,10.70
2023-03-25T08:50:54.999Z,10.60
2023-03-25T08:54:02.733Z,10.60
2023-03-25T08:57:06.504Z,10.60
2023-03-25T09:00:14.745Z,10.60
2023-03-25T09:03:18.446Z,10.60
2023-03-25T09:06:24.362Z,10.60
2023-03-25T09:09:30.256Z,10.60
2023-03-25T09:12:36.580Z,10.60
2023-03-25T09:15:40.554Z,10.60
2023-03-25T09:18:46.328Z,10.70
2023-03-25T09:21:50.310Z,10.70
2023-03-25T09:24:58.029Z,10.70
2023-03-25T09:28:02.265Z,10.70
2023-03-25T09:31:08.744Z,10.80
2023-03-25T09:34:13.715Z,10.80
2023-03-25T09:37:20.561Z,10.90
2023-03-25T09:40:26.554Z,10.90
2023-03-25T09:43:38.666Z,11.00
2023-03-25T09:46:42.599Z,11.00
2023-03-25T09:49:53.150Z,11.10
2023-03-25T09:52:59.261Z,11.10
2023-03-25T09:56:08.476Z,11.20
2023-03-25T09:59:15.482Z,11.20
2023-03-25T10:02:29.497Z,11.30
2023-03-25T10:05:57.127Z,11.30
2023-03-25T10:09:09.686Z,11.30
2023-03-25T10:12:23.687Z,11.30
2023-03-25T10:15:32.902Z,11.30
2023-03-25T10:18:47.203Z,11.30
2023-03-25T10:21:54.952Z,11.30
2023-03-25T10:25:00.137Z,11.40
2023-03-25T10:28:09.137Z,11.40
2023-03-25T10:31:15.095Z,11.50
2023-03-25T10:34:22.087Z,11.60
2023-03-25T10:37:28.303Z,11.70
2023-03-25T10:40:36.256Z,11.70
2023-03-25T10:43:43.112Z,11.80
2023-03-25T10:46:51.865Z,11.90
2023-03-25T10:49:55.806Z,12.00
2023-03-25T10:53:01.695Z,12.00
2023-03-25T10:56:07.123Z,12.10
2023-03-25T10:59:19.129Z,12.30
2023-03-25T11:02:24.844Z,12.40
2023-03-25T11:05:31.288Z,12.50
2023-03-25T11:08:35.364Z,12.60
2023-03-25T11:11:41.457Z,12.70
2023-03-25T11:14:55.979Z,12.80
2023-03-25T11:18:04.580Z,13.00
2023-03-25T11:21:09.928Z,13.00
2023-03-25T11:24:16.562Z,13.20
2023-03-25T11:27:21.775Z,13.20
2023-03-25T11:30:29.435Z,13.30
2023-03-25T11:33:33.349Z,13.40
2023-03-25T11:36:40.308Z,13.30
2023-03-25T11:39:44.465Z,13.40
2023-03-25T11:42:53.936Z,13.40
2023-03-25T11:45:59.608Z,13.50
2023-03-25T11:49:12.260Z,13.50
2023-03-25T11:52:19.287Z,13.60
2023-03-25T11:55:26.494Z,13.70
2023-03-25T11:58:32.642Z,13.70
2023-03-25T12:01:43.800Z,13.80
2023-03-25T12:04:57.223Z,13.80
2023-03-25T12:08:05.866Z,13.80
2023-03-25T12:11:12.966Z,13.80
2023-03-25T12:14:28.238Z,13.80
2023-03-25T12:17:40.239Z,13.80
2023-03-25T12:20:54.676Z,13.80
2023-03-25T12:24:06.984Z,13.80
2023-03-25T12:27:18.389Z,13.80
2023-03-25T12:30:37.344Z,13.70
2023-03-25T12:33:52.023Z,13.70
2023-03-25T12:37:01.407Z,13.60
2023-03-25T12:40:29.274Z,13.60
2023-03-25T12:43:39.751Z,13.50
2023-03-25T12:46:56.313Z,13.40
2023-03-25T12:50:13.146Z,13.30
2023-03-25T12:53:26.906Z,13.30
2023-03-25T12:56:36.292Z,13.30
2023-03-25T12:59:54.181Z,13.20
2023-03-25T13:03:12.038Z,13.30
2023-03-25T13:06:24.131Z,13.30
2023-03-25T13:09:29.532Z,13.30
2023-03-25T13:12:37.314Z,13.30
2023-03-25T13:15:43.485Z,13.40
2023-03-25T13:18:51.389Z,13.40
2023-03-25T13:21:59.105Z,13.50
2023-03-25T13:25:07.957Z,13.50
2023-03-25T13:28:13.901Z,13.50
2023-03-25T13:31:21.338Z,13.50
2023-03-25T13:34:27.954Z,13.50
2023-03-25T13:37:37.965Z,13.50
2023-03-25T13:40:45.075Z,13.40
2023-03-25T13:43:55.847Z,13.40
2023-03-25T13:47:02.888Z,13.30
2023-03-25T13:50:12.818Z,13.30
2023-03-25T13:53:21.391Z,13.30
2023-03-25T13:56:35.782Z,13.20
2023-03-25T13:59:53.020Z,13.10
2023-03-25T14:03:24.295Z,13.10
2023-03-25T14:06:38.441Z,13.10
2023-03-25T14:09:57.207Z,13.10
2023-03-25T14:13:03.350Z,13.10
2023-03-25T14:16:10.436Z,13.10
2023-03-25T14:19:15.392Z,13.10
2023-03-25T14:22:23.534Z,13.10
2023-03-25T14:25:36.765Z,13.20
2023-03-25T14:28:44.219Z,13.20
2023-03-25T14:32:01.638Z,13.30
2023-03-25T14:35:22.379Z,13.30
2023-03-25T14:38:50.217Z,13.40
2023-03-25T14:42:02.675Z,13.50
2023-03-25T14:45:29.261Z,13.60
2023-03-25T14:48:36.891Z,13.70
2023-03-25T14:51:48.371Z,13.70
2023-03-25T14:54:56.278Z,13.80
2023-03-25T14:58:03.115Z,13.90
2023-03-25T15:01:12.549Z,13.90
2023-03-25T15:04:18.874Z,14.00
2023-03-25T15:07:40.419Z,14.10
2023-03-25T15:10:45.619Z,14.10
2023-03-25T15:13:57.463Z,14.10
2023-03-25T15:17:06.884Z,14.20
2023-03-25T15:20:31.194Z,14.20
2023-03-25T15:23:37.135Z,14.10
2023-03-25T15:26:44.033Z,14.10
2023-03-25T15:29:57.251Z,14.10
2023-03-25T15:33:11.384Z,14.00
2023-03-25T15:36:32.570Z,14.00
2023-03-25T15:39:44.333Z,13.90
2023-03-25T15:42:57.261Z,13.80
2023-03-25T15:46:12.426Z,13.70
2023-03-25T15:49:29.122Z,13.60
2023-03-25T15:52:40.113Z,13.50
2023-03-25T15:55:51.769Z,13.50
2023-03-25T15:59:02.702Z,13.40
2023-03-25T16:02:14.324Z,13.30
2023-03-25T16:05:21.138Z,13.10
2023-03-25T16:08:27.204Z,13.00
2023-03-25T16:11:33.027Z,12.90
2023-03-25T16:14:39.263Z,12.70
2023-03-25T16:17:48.297Z,12.60
2023-03-25T16:20:55.448Z,12.40
2023-03-25T16:24:04.356Z,12.30
2023-03-25T16:27:11.696Z,12.20
2023-03-25T16:30:22.196Z,12.10
2023-03-25T16:33:32.132Z,12.00
2023-03-25T16:36:37.910Z,11.90
2023-03-25T16:39:41.805Z,11.80
2023-03-25T16:42:47.689Z,11.70
2023-03-25T16:45:52.790Z,11.60
2023-03-25T16:49:01.682Z,11.60
2023-03-25T16:52:09.172Z,11.50
2023-03-25T16:55:27.281Z,11.50
2023-03-25T16:58:31.215Z,11.40
2023-03-25T17:01:40.727Z,11.30
2023-03-25T17:04:46.425Z,11.30
2023-03-25T17:07:57.676Z,11.20
2023-03-25T17:11:01.603Z,11.20
2023-03-25T17:14:08.324Z,11.20
2023-03-25T17:17:14.979Z,11.10
2023-03-25T17:20:26.667Z,11.00
2023-03-25T17:23:36.962Z,11.00
2023-03-25T17:26:56.057Z,11.00
2023-03-25T17:30:00.767Z,10.90
2023-03-25T17:33:11.087Z,10.90
2023-03-25T17:36:18.325Z,10.90
2023-03-25T17:39:25.593Z,10.90
2023-03-25T17:42:29.682Z,10.80
2023-03-25T17:45:35.679Z,10.80
2023-03-25T17:48:39.355Z,10.70
2023-03-25T17:51:47.834Z,10.80
2023-03-25T17:54:51.633Z,10.70
2023-03-25T17:57:57.555Z,10.70
2023-03-25T18:01:01.287Z,10.60
2023-03-25T18:04:07.312Z,10.60
2023-03-25T18:07:13.167Z,10.60
2023-03-25T18:10:20.457Z,10.60
2023-03-25T18:13:25.376Z,10.60
2023-03-25T18:16:31.352Z,10.50
2023-03-25T18:19:35.253Z,10.50
2023-03-25T18:22:42.925Z,10.50
2023-03-25T18:25:47.413Z,10.50
2023-03-25T18:28:53.618Z,10.50
2023-03-25T18:31:57.592Z,10.50
2023-03-25T18:35:03.708Z,10.40
2023-03-25T18:38:14.254Z,10.40
2023-03-25T18:41:19.962Z,10.40
2023-03-25T18:44:27.208Z,10.40
2023-03-25T18:47:33.031Z,10.40
2023-03-25T18:50:38.404Z,10.40
2023-03-25T18:53:48.322Z,10.40
2023-03-25T18:56:52.075Z,10.40
2023-03-25T18:59:58.031Z,10.40
2023-03-25T19:03:02.935Z,10.40
2023-03-25T19:06:10.244Z,10.40
2023-03-25T19:09:17.625Z,10.40
2023-03-25T19:12:23.305Z,10.40
2023-03-25T19:15:28.180Z,10.30
2023-03-25T19:18:34.599Z,10.40
2023-03-25T19:21:38.522Z,10.40
2023-03-25T19:24:46.424Z,10.40
2023-03-25T19:27:50.170Z,10.40
2023-03-25T19:30:56.487Z,10.40
2023-03-25T19:34:00.783Z,10.40
2023-03-25T19:37:07.525Z,10.30
2023-03-25T19:40:17.038Z,10.30
2023-03-25T19:43:22.929Z,10.30
2023-03-25T19:46:28.698Z,10.30
2023-03-25T19:49:39.675Z,10.20
2023-03-25T19:52:44.224Z,10.20
2023-03-25T19:55:52.318Z,10.20
2023-03-25T19:58:56.557Z,10.20
2023-03-25T20:02:02.361Z,10.20
2023-03-25T20:05:06.449Z,10.10
2023-03-25T20:08:12.296Z,10.10
2023-03-25T20:11:18.221Z,10.10
2023-03-25T20:14:24.191Z,10.10
2023-03-25T20:17:28.216Z,10.10
2023-03-25T20:20:34.094Z,10.10
2023-03-25T20:23:37.871Z,10.10
2023-03-25T20:26:46.235Z,10.10
2023-03-25T20:29:49.976Z,10.10
2023-03-25T20:32:55.806Z,10.10
2023-03-25T20:35:59.634Z,10.10
2023-03-25T20:39:06.134Z,10.10
2023-03-25T20:42:11.813Z,10.10
2023-03-25T20:45:19.165Z,10.10
2023-03-25T20:48:24.047Z,10.10
2023-03-25T20:51:29.886Z,10.10
2023-03-25T20:54:33.751Z,10.10
2023-03-25T20:57:41.970Z,10.10
2023-03-25T21:00:46.462Z,10.10
2023-03-25T21:03:52.769Z,10.10
2023-03-25T21:06:56.834Z,10.10
2023-03-25T21:10:03.099Z,10.10
2023-03-25T21:13:09.069Z,10.10
2023-03-25T21:16:14.936Z,10.20
2023-03-25T21:19:19.485Z,10.20
2023-03-25T21:22:26.719Z,10.20
2023-03-25T21:25:33.727Z,10.10
2023-03-25T21:28:42.213Z,10.10
2023-03-25T21:31:49.062Z,10.10
2023-03-25T21:34:55.114Z,10.20
2023-03-25T21:38:00.393Z,10.20
2023-03-25T21:41:07.403Z,10.10
2023-03-25T21:44:15.833Z,10.10
2023-03-25T21:47:21.905Z,10.20
2023-03-25T21:50:25.789Z,10.20
2023-03-25T21:53:33.746Z,10.20
2023-03-25T21:56:39.376Z,10.20
2023-03-25T21:59:47.583Z,10.20
2023-03-25T22:02:57.824Z,10.10
2023-03-25T22:06:04.407Z,10.20
2023-03-25T22:09:08.832Z,10.20
2023-03-25T22:12:14.602Z,10.20
2023-03-25T22:15:20.681Z,10.20
2023-03-25T22:18:26.522Z,10.20
2023-03-25T22:21:32.666Z,10.20
2023-03-25T22:24:39.012Z,10.20
2023-03-25T22:27:42.741Z,10.20
2023-03-25T22:30:50.935Z,10.20
2023-03-25T22:33:57.998Z,10.20
2023-03-25T22:37:04.008Z,10.20
2023-03-25T22:40:09.265Z,10.20
2023-03-25T22:43:15.609Z,10.20
2023-03-25T22:46:21.869Z,10.20
2023-03-25T22:49:27.981Z,10.20
2023-03-25T22:52:31.940Z,10.20
2023-03-25T22:55:38.011Z,10.20
2023-03-25T22:58:42.352Z,10.20
2023-03-25T23:01:50.052Z,10.20
2023-03-25T23:04:53.748Z,10.20
2023-03-25T23:07:59.830Z,10.20
2023-03-25T23:11:08.217Z,10.20
2023-03-25T23:14:14.920Z,10.30
2023-03-25T23:17:23.675Z,10.30
2023-03-25T23:20:28.806Z,10.20
2023-03-25T23:23:34.595Z,10.20
2023-03-25T23:26:39.665Z,10.20
2023-03-25T23:29:45.406Z,10.30
2023-03-25T23:32:51.440Z,10.30
2023-03-25T23:36:00.375Z,10.20
2023-03-25T23:39:05.915Z,10.20
2023-03-25T23:42:11.735Z,10.20
2023-03-25T23:45:15.477Z,10.20
2023-03-25T23:48:24.018Z,10.20
2023-03-25T23:51:27.769Z,10.20
2023-03-25T23:54:33.604Z,10.20
2023-03-25T23:57:37.728Z,10.20
